Terminal Aerodrome Forecast
Issued by NWS

Home | Current Version | Previous Version | Text Only | Print | Product List | Glossary On
Versions: 1 2 3 4 5 6 7 8 9 10 11 12 13 14 15 16 17
000
FTAK31 PAFA 240602 AAA
TAFAOR
TAF AMD
PAOR 240602Z 2406/2506 32005KT P6SM -SN BKN040 OVC060
      TEMPO 2406/2408 2SM -SN OVC025
     FM242100 VRB03KT P6SM SCT040=

USA.gov is the U.S. government's official web portal to all federal, state and local government web resources and services.